Airport View

Enter ICAO identifier to see the current METAR for that AWOS.

KFNL for example

K8S0 311645Z 33002KT

31 Jul 2014 17:34

Other Area AWOS: KCTB - CWFJ - KGPI - CWRY

TAF KCTB 311120Z 3112/0112 31009KT P6SM FEW110 FM312100 33011KT P6SM VCTS SCT100CB BKN120 FM010300 VRB06KT P6SM SCT120